Time;durP1;ratioP1;P1;durP2;ratioP2;P2;SDS_P1;SDS_P2;PMS_P1;PMS_P2;Temp;Humidity;BMP_temperature;BMP_pressure;BME280_temperature;BME280_humidity;BME280_pressure;Samples;Min_cycle;Max_cycle;Signal;HPM_P1;HPM_P2
2023/07/19 00:00:36;;;;;;;5.88;2.95;;;;;;;;;;7368304;19;20073;-76
2023/07/19 00:03:02;;;;;;;5.97;2.75;;;;;;;;;;7368592;19;20018;-76
2023/07/19 00:05:28;;;;;;;5.93;2.55;;;;;;;;;;7369085;19;20023;-77
2023/07/19 00:07:53;;;;;;;6.10;2.83;;;;;;;;;;7366727;19;20014;-76
2023/07/19 00:10:18;;;;;;;4.28;2.30;;;;;;;;;;7389400;19;20009;-76
2023/07/19 00:12:44;;;;;;;4.85;2.55;;;;;;;;;;7372628;19;20014;-75
2023/07/19 00:15:09;;;;;;;10.30;3.00;;;;;;;;;;7376302;19;20538;-76
2023/07/19 00:17:34;;;;;;;8.70;2.60;;;;;;;;;;7376189;19;20032;-76
2023/07/19 00:20:00;;;;;;;5.20;2.47;;;;;;;;;;7371192;19;20372;-76
2023/07/19 00:22:25;;;;;;;7.15;2.80;;;;;;;;;;7391301;19;20047;-75
2023/07/19 00:24:51;;;;;;;4.90;2.40;;;;;;;;;;7367401;19;20010;-75
2023/07/19 00:27:16;;;;;;;5.80;2.60;;;;;;;;;;7367412;19;20534;-76
2023/07/19 00:29:41;;;;;;;6.25;2.60;;;;;;;;;;7367165;19;20014;-77
2023/07/19 00:32:07;;;;;;;5.85;2.80;;;;;;;;;;7365709;19;20025;-74
2023/07/19 00:34:32;;;;;;;8.63;2.70;;;;;;;;;;7387343;19;20048;-75
2023/07/19 00:36:59;;;;;;;7.38;3.38;;;;;;;;;;7366028;19;20014;-76
2023/07/19 00:39:24;;;;;;;5.63;2.60;;;;;;;;;;7367072;19;20022;-76
2023/07/19 00:41:49;;;;;;;4.97;2.65;;;;;;;;;;7364337;19;20329;-76
2023/07/19 00:44:15;;;;;;;8.88;3.05;;;;;;;;;;7368351;19;20010;-76
2023/07/19 00:46:40;;;;;;;5.25;2.70;;;;;;;;;;7387026;19;20026;-76
2023/07/19 00:49:06;;;;;;;6.90;2.67;;;;;;;;;;7366067;19;20082;-76
2023/07/19 00:51:32;;;;;;;6.95;2.78;;;;;;;;;;7367104;19;20006;-76
2023/07/19 00:53:58;;;;;;;8.25;2.95;;;;;;;;;;7365630;19;20016;-76
2023/07/19 00:56:23;;;;;;;9.63;3.00;;;;;;;;;;7366473;19;20014;-75
2023/07/19 00:58:50;;;;;;;7.05;2.60;;;;;;;;;;7386440;19;20013;-75
2023/07/19 01:01:15;;;;;;;5.60;2.60;;;;;;;;;;7366681;19;20365;-75
2023/07/19 01:03:41;;;;;;;6.53;3.05;;;;;;;;;;7367577;19;20007;-75
2023/07/19 01:06:07;;;;;;;7.18;3.22;;;;;;;;;;7368035;19;20074;-75
2023/07/19 01:08:32;;;;;;;4.90;2.97;;;;;;;;;;7366096;19;20002;-75
2023/07/19 01:10:59;;;;;;;8.25;2.95;;;;;;;;;;7367805;19;20005;-75
2023/07/19 01:13:24;;;;;;;4.88;2.55;;;;;;;;;;7388340;19;20470;-75
2023/07/19 01:15:50;;;;;;;5.90;2.50;;;;;;;;;;7367555;19;20023;-75
2023/07/19 01:18:17;;;;;;;9.27;2.90;;;;;;;;;;7367017;19;20013;-75
2023/07/19 01:20:43;;;;;;;9.00;3.45;;;;;;;;;;7366681;19;20064;-75
2023/07/19 01:23:08;;;;;;;5.72;2.50;;;;;;;;;;7368599;19;20345;-75
2023/07/19 01:25:34;;;;;;;6.80;2.90;;;;;;;;;;7389417;19;20480;-75
2023/07/19 01:28:00;;;;;;;7.85;2.53;;;;;;;;;;7371292;19;20015;-75
2023/07/19 01:30:26;;;;;;;7.63;2.78;;;;;;;;;;7370959;19;20065;-75
2023/07/19 01:32:51;;;;;;;7.03;2.80;;;;;;;;;;7369467;19;20474;-76
2023/07/19 01:35:17;;;;;;;11.07;3.05;;;;;;;;;;7369438;19;20401;-77
2023/07/19 01:37:42;;;;;;;6.03;2.55;;;;;;;;;;7391259;19;20014;-77
2023/07/19 01:40:11;;;;;;;5.82;2.38;;;;;;;;;;7369199;19;20010;-76
2023/07/19 01:42:36;;;;;;;4.50;2.50;;;;;;;;;;7369164;19;20317;-75
2023/07/19 01:45:01;;;;;;;6.22;2.33;;;;;;;;;;7368302;19;20035;-75
2023/07/19 01:47:27;;;;;;;5.30;2.63;;;;;;;;;;7367633;19;20453;-77
2023/07/19 01:49:53;;;;;;;6.47;2.72;;;;;;;;;;7373182;19;20030;-76
2023/07/19 01:52:18;;;;;;;6.53;2.63;;;;;;;;;;7387223;19;20091;-76
2023/07/19 01:54:43;;;;;;;6.88;3.13;;;;;;;;;;7364720;19;20010;-75
2023/07/19 01:57:08;;;;;;;9.88;2.80;;;;;;;;;;7365376;19;20051;-75
2023/07/19 01:59:34;;;;;;;5.97;2.80;;;;;;;;;;7367867;19;20014;-75
2023/07/19 02:01:59;;;;;;;4.68;2.38;;;;;;;;;;7366894;19;20018;-76
2023/07/19 02:04:24;;;;;;;5.50;2.63;;;;;;;;;;7389018;19;20011;-76
2023/07/19 02:06:50;;;;;;;5.90;2.80;;;;;;;;;;7364596;19;20015;-76
2023/07/19 02:09:15;;;;;;;6.35;2.35;;;;;;;;;;7368833;19;20010;-76
2023/07/19 02:11:41;;;;;;;4.85;2.75;;;;;;;;;;7376225;19;20546;-76
2023/07/19 02:14:06;;;;;;;5.18;2.70;;;;;;;;;;7367494;19;20411;-77
2023/07/19 02:16:32;;;;;;;9.30;2.92;;;;;;;;;;7396488;19;20468;-77
2023/07/19 02:18:57;;;;;;;6.55;2.55;;;;;;;;;;7374657;19;20019;-76
2023/07/19 02:21:22;;;;;;;7.72;2.88;;;;;;;;;;7366753;19;20011;-75
2023/07/19 02:23:48;;;;;;;14.00;2.90;;;;;;;;;;7366233;19;20010;-77
2023/07/19 02:26:13;;;;;;;5.90;2.63;;;;;;;;;;7365677;19;20011;-77
2023/07/19 02:28:38;;;;;;;7.90;2.97;;;;;;;;;;7387023;19;20045;-76
2023/07/19 02:31:04;;;;;;;6.80;2.78;;;;;;;;;;7364887;19;20014;-76
2023/07/19 02:33:29;;;;;;;7.20;2.67;;;;;;;;;;7364780;19;20112;-76
2023/07/19 02:35:55;;;;;;;8.07;3.00;;;;;;;;;;7366025;19;20039;-76
2023/07/19 02:38:22;;;;;;;9.85;2.60;;;;;;;;;;7364464;19;20477;-76
2023/07/19 02:40:47;;;;;;;7.88;2.80;;;;;;;;;;7386802;19;20035;-76
2023/07/19 02:43:13;;;;;;;5.80;2.78;;;;;;;;;;7366729;19;20018;-76
2023/07/19 02:45:38;;;;;;;7.82;2.95;;;;;;;;;;7362906;19;20010;-76
2023/07/19 02:48:04;;;;;;;5.32;2.83;;;;;;;;;;7366938;19;20017;-75
2023/07/19 02:50:29;;;;;;;10.40;2.50;;;;;;;;;;7367891;19;20006;-75
2023/07/19 02:52:55;;;;;;;6.80;2.78;;;;;;;;;;7368912;19;20006;-75
2023/07/19 02:55:20;;;;;;;5.38;2.65;;;;;;;;;;7390645;19;20034;-75
2023/07/19 02:57:45;;;;;;;7.70;2.95;;;;;;;;;;7367430;19;20011;-75
2023/07/19 03:00:11;;;;;;;5.47;2.50;;;;;;;;;;7367758;19;20012;-76
2023/07/19 03:02:36;;;;;;;5.78;2.80;;;;;;;;;;7368372;19;20002;-75
2023/07/19 03:05:03;;;;;;;6.70;2.70;;;;;;;;;;7366397;19;20010;-76
2023/07/19 03:07:29;;;;;;;7.50;3.05;;;;;;;;;;7386330;19;19996;-76
2023/07/19 03:09:54;;;;;;;7.53;2.80;;;;;;;;;;7364220;19;20009;-75
2023/07/19 03:12:19;;;;;;;6.05;2.88;;;;;;;;;;7363253;19;20006;-75
2023/07/19 03:14:45;;;;;;;6.22;2.55;;;;;;;;;;7362712;19;20002;-77
2023/07/19 03:17:10;;;;;;;6.43;2.90;;;;;;;;;;7366853;19;20007;-76
2023/07/19 03:19:35;;;;;;;9.25;3.15;;;;;;;;;;7392991;19;20002;-76
2023/07/19 03:22:02;;;;;;;6.88;2.45;;;;;;;;;;7370269;19;20013;-75
2023/07/19 03:24:27;;;;;;;5.32;2.42;;;;;;;;;;7371023;19;20017;-75
2023/07/19 03:26:53;;;;;;;4.70;2.50;;;;;;;;;;7369026;19;20010;-77
2023/07/19 03:29:19;;;;;;;5.82;2.83;;;;;;;;;;7369863;19;20013;-77
2023/07/19 03:31:44;;;;;;;8.18;2.72;;;;;;;;;;7391021;19;20007;-75
2023/07/19 03:34:09;;;;;;;6.10;2.65;;;;;;;;;;7367865;19;20006;-76
2023/07/19 03:36:35;;;;;;;5.32;2.80;;;;;;;;;;7373615;19;20010;-76
2023/07/19 03:39:00;;;;;;;4.80;2.60;;;;;;;;;;7376059;19;20518;-76
2023/07/19 03:41:25;;;;;;;7.10;2.70;;;;;;;;;;7371219;19;20347;-76
2023/07/19 03:43:51;;;;;;;7.07;3.03;;;;;;;;;;7390733;19;20006;-76
2023/07/19 03:46:17;;;;;;;6.22;2.47;;;;;;;;;;7366440;19;20554;-76
2023/07/19 03:48:42;;;;;;;4.85;2.40;;;;;;;;;;7367612;19;20007;-76
2023/07/19 03:51:07;;;;;;;9.20;2.58;;;;;;;;;;7362044;19;20017;-76
2023/07/19 03:53:33;;;;;;;8.52;2.80;;;;;;;;;;7366061;19;20002;-75
2023/07/19 03:55:59;;;;;;;5.60;2.67;;;;;;;;;;7365607;19;20038;-77
2023/07/19 03:58:26;;;;;;;5.85;2.80;;;;;;;;;;7382357;19;20022;-76
2023/07/19 04:01:03;;;;;;;5.82;2.60;;;;;;;;;;7360531;19;20053;-77
2023/07/19 04:03:28;;;;;;;7.25;2.88;;;;;;;;;;7370686;19;20018;-75
2023/07/19 04:05:54;;;;;;;7.80;2.83;;;;;;;;;;7367738;19;20043;-77
2023/07/19 04:08:20;;;;;;;7.45;2.30;;;;;;;;;;7368277;19;20082;-75
2023/07/19 04:10:45;;;;;;;4.65;2.60;;;;;;;;;;7389403;19;20014;-75
2023/07/19 04:13:11;;;;;;;5.97;2.85;;;;;;;;;;7368775;19;20010;-75
2023/07/19 04:15:36;;;;;;;5.85;2.63;;;;;;;;;;7373044;19;20023;-75
2023/07/19 04:18:02;;;;;;;6.63;2.60;;;;;;;;;;7377593;19;20025;-75
2023/07/19 04:20:29;;;;;;;6.72;2.60;;;;;;;;;;7370375;19;20013;-75
2023/07/19 04:22:54;;;;;;;4.50;2.10;;;;;;;;;;7370965;19;20006;-75
2023/07/19 04:25:21;;;;;;;6.50;2.70;;;;;;;;;;7396505;19;20013;-75
2023/07/19 04:27:46;;;;;;;6.85;3.17;;;;;;;;;;7370011;19;20003;-75
2023/07/19 04:30:13;;;;;;;6.57;2.70;;;;;;;;;;7364245;19;20797;-75
2023/07/19 04:32:38;;;;;;;5.97;2.70;;;;;;;;;;7368638;19;20003;-75
2023/07/19 04:35:04;;;;;;;5.63;2.70;;;;;;;;;;7367041;19;20570;-76
2023/07/19 04:37:30;;;;;;;6.78;2.88;;;;;;;;;;7387437;19;20555;-73
2023/07/19 04:39:55;;;;;;;7.25;2.90;;;;;;;;;;7368250;19;20034;-72
2023/07/19 04:42:22;;;;;;;7.03;2.95;;;;;;;;;;7368474;19;20048;-74
2023/07/19 04:44:47;;;;;;;8.43;3.00;;;;;;;;;;7357809;19;20093;-74
2023/07/19 04:47:13;;;;;;;6.20;3.05;;;;;;;;;;7356547;19;20740;-74
2023/07/19 04:49:38;;;;;;;10.10;3.47;;;;;;;;;;7387196;19;20009;-75
2023/07/19 04:52:04;;;;;;;7.45;3.00;;;;;;;;;;7363666;19;20010;-75
2023/07/19 04:54:29;;;;;;;8.60;2.90;;;;;;;;;;7366672;19;20013;-74
2023/07/19 04:56:54;;;;;;;6.97;2.95;;;;;;;;;;7366443;19;20101;-74
2023/07/19 04:59:20;;;;;;;6.20;2.47;;;;;;;;;;7367079;19;20017;-74
2023/07/19 05:01:45;;;;;;;5.85;2.58;;;;;;;;;;7388902;19;20006;-75
2023/07/19 05:04:12;;;;;;;7.40;2.80;;;;;;;;;;7366092;19;20106;-75
2023/07/19 05:06:37;;;;;;;8.85;2.70;;;;;;;;;;7367572;19;20478;-75
2023/07/19 05:09:03;;;;;;;6.55;2.80;;;;;;;;;;7368825;19;20006;-75
2023/07/19 05:11:29;;;;;;;6.25;2.40;;;;;;;;;;7367362;19;20045;-77
2023/07/19 05:13:55;;;;;;;9.27;2.70;;;;;;;;;;7366870;19;20039;-73
2023/07/19 05:16:21;;;;;;;7.55;2.72;;;;;;;;;;7389847;19;20006;-69
2023/07/19 05:18:46;;;;;;;9.35;2.95;;;;;;;;;;7366360;19;20021;-75
2023/07/19 05:21:12;;;;;;;6.63;2.58;;;;;;;;;;7365434;19;20021;-75
2023/07/19 05:23:37;;;;;;;8.63;2.60;;;;;;;;;;7367384;19;20037;-75
2023/07/19 05:26:03;;;;;;;6.25;2.90;;;;;;;;;;7367041;19;19998;-74
2023/07/19 05:28:28;;;;;;;6.72;2.53;;;;;;;;;;7386630;19;20009;-72
2023/07/19 05:30:54;;;;;;;6.53;2.88;;;;;;;;;;7364966;19;20045;-73
2023/07/19 05:33:19;;;;;;;6.13;2.60;;;;;;;;;;7364805;19;20010;-72
2023/07/19 05:35:47;;;;;;;8.30;2.72;;;;;;;;;;7358554;19;20086;-70
2023/07/19 05:38:12;;;;;;;7.53;3.00;;;;;;;;;;7361795;19;20027;-71
2023/07/19 05:40:38;;;;;;;6.30;2.58;;;;;;;;;;7383149;19;20006;-70
2023/07/19 05:43:03;;;;;;;6.40;3.08;;;;;;;;;;7368899;19;20034;-77
2023/07/19 05:45:28;;;;;;;5.93;2.80;;;;;;;;;;7368567;19;20014;-73
2023/07/19 05:47:54;;;;;;;8.20;2.75;;;;;;;;;;7365369;19;20412;-74
2023/07/19 05:50:19;;;;;;;5.13;2.50;;;;;;;;;;7363861;19;20033;-74
2023/07/19 05:52:44;;;;;;;5.60;2.60;;;;;;;;;;7384827;19;20119;-74
2023/07/19 05:55:10;;;;;;;9.07;2.90;;;;;;;;;;7364857;19;20010;-75
2023/07/19 05:57:35;;;;;;;5.43;3.10;;;;;;;;;;7364156;19;20007;-75
2023/07/19 06:00:13;;;;;;;5.45;2.70;;;;;;;;;;7363613;19;20014;-75
2023/07/19 06:02:39;;;;;;;5.32;2.70;;;;;;;;;;7365241;19;20457;-75
2023/07/19 06:05:05;;;;;;;6.80;2.70;;;;;;;;;;7365198;19;20110;-75
2023/07/19 06:07:30;;;;;;;10.70;2.70;;;;;;;;;;7385903;19;20006;-75
2023/07/19 06:09:56;;;;;;;7.28;2.92;;;;;;;;;;7366182;19;20287;-75
2023/07/19 06:12:21;;;;;;;6.22;2.83;;;;;;;;;;7371534;19;20067;-75
2023/07/19 06:14:46;;;;;;;9.53;2.77;;;;;;;;;;7368187;19;20022;-76
2023/07/19 06:17:12;;;;;;;5.82;2.83;;;;;;;;;;7366340;19;20217;-75
2023/07/19 06:19:37;;;;;;;5.25;2.67;;;;;;;;;;7384108;19;20013;-74
2023/07/19 06:22:03;;;;;;;6.45;2.60;;;;;;;;;;7363753;19;20268;-74
2023/07/19 06:24:28;;;;;;;5.93;3.05;;;;;;;;;;7364478;19;20003;-75
2023/07/19 06:26:54;;;;;;;9.05;3.00;;;;;;;;;;7368134;19;19998;-75
2023/07/19 06:29:21;;;;;;;6.03;3.00;;;;;;;;;;7368906;19;20006;-74
2023/07/19 06:31:47;;;;;;;4.78;2.58;;;;;;;;;;7388920;19;20465;-75
2023/07/19 06:34:12;;;;;;;5.68;3.05;;;;;;;;;;7370937;19;20006;-74
2023/07/19 06:36:37;;;;;;;7.63;2.75;;;;;;;;;;7371686;19;20001;-75
2023/07/19 06:39:03;;;;;;;8.45;2.83;;;;;;;;;;7365076;19;19994;-75
2023/07/19 06:41:28;;;;;;;7.30;3.10;;;;;;;;;;7364343;19;20563;-75
2023/07/19 06:43:54;;;;;;;5.13;2.70;;;;;;;;;;7364769;19;20052;-74
2023/07/19 06:46:19;;;;;;;6.72;2.70;;;;;;;;;;7384664;19;20836;-75
2023/07/19 06:48:45;;;;;;;6.78;2.55;;;;;;;;;;7362858;19;20011;-75
2023/07/19 06:51:10;;;;;;;9.63;2.63;;;;;;;;;;7363927;19;20002;-75
2023/07/19 06:53:36;;;;;;;6.40;2.95;;;;;;;;;;7371216;19;20014;-75
2023/07/19 06:56:01;;;;;;;7.63;2.75;;;;;;;;;;7370918;19;20003;-75
2023/07/19 06:58:27;;;;;;;9.68;3.03;;;;;;;;;;7390847;19;19998;-75
2023/07/19 07:00:56;;;;;;;6.32;2.95;;;;;;;;;;7370337;19;20011;-75
2023/07/19 07:03:22;;;;;;;7.55;2.78;;;;;;;;;;7370486;19;20014;-76
2023/07/19 07:05:47;;;;;;;4.30;2.60;;;;;;;;;;7372172;19;20592;-75
2023/07/19 07:08:12;;;;;;;5.80;2.88;;;;;;;;;;7368765;19;20033;-75
2023/07/19 07:10:41;;;;;;;7.93;2.80;;;;;;;;;;7392531;19;20002;-75
2023/07/19 07:13:06;;;;;;;6.07;2.70;;;;;;;;;;7368417;19;20457;-75
2023/07/19 07:15:31;;;;;;;6.63;2.85;;;;;;;;;;7378708;19;20019;-75
2023/07/19 07:17:57;;;;;;;6.82;3.08;;;;;;;;;;7370329;19;20522;-75
2023/07/19 07:20:22;;;;;;;7.40;3.08;;;;;;;;;;7368783;19;20026;-75
2023/07/19 07:22:47;;;;;;;5.43;2.67;;;;;;;;;;7391696;19;20003;-75
2023/07/19 07:25:13;;;;;;;5.55;2.53;;;;;;;;;;7370052;19;20390;-75
2023/07/19 07:27:38;;;;;;;5.75;2.70;;;;;;;;;;7368824;19;20014;-75
2023/07/19 07:30:04;;;;;;;7.10;2.67;;;;;;;;;;7357637;19;20035;-75
2023/07/19 07:32:30;;;;;;;10.85;2.83;;;;;;;;;;7370020;19;20257;-75
2023/07/19 07:34:56;;;;;;;5.70;2.90;;;;;;;;;;7369068;19;20551;-75
2023/07/19 07:37:21;;;;;;;5.35;2.83;;;;;;;;;;7391625;19;20011;-78
2023/07/19 07:39:46;;;;;;;12.57;3.03;;;;;;;;;;7372697;19;20035;-77
2023/07/19 07:42:12;;;;;;;6.65;2.55;;;;;;;;;;7369295;19;20018;-77
2023/07/19 07:44:37;;;;;;;7.55;2.83;;;;;;;;;;7371422;19;20011;-77
2023/07/19 07:47:03;;;;;;;9.15;2.95;;;;;;;;;;7367762;19;20031;-77
2023/07/19 07:49:28;;;;;;;6.05;2.97;;;;;;;;;;7388994;19;20710;-76
2023/07/19 07:51:53;;;;;;;5.43;2.85;;;;;;;;;;7367726;19;20015;-77
2023/07/19 07:54:20;;;;;;;4.75;2.33;;;;;;;;;;7367836;19;20021;-77
2023/07/19 07:56:45;;;;;;;5.72;2.67;;;;;;;;;;7375563;19;20011;-77
2023/07/19 07:59:10;;;;;;;4.75;2.60;;;;;;;;;;7385539;19;20015;-77
2023/07/19 08:01:36;;;;;;;4.32;2.65;;;;;;;;;;7411492;19;20020;-77
2023/07/19 08:04:02;;;;;;;6.72;2.80;;;;;;;;;;7403105;19;20003;-78
2023/07/19 08:06:27;;;;;;;6.10;2.83;;;;;;;;;;7408304;19;20002;-77
2023/07/19 08:08:53;;;;;;;3.85;2.35;;;;;;;;;;7407732;19;20009;-77
2023/07/19 08:11:21;;;;;;;7.43;3.03;;;;;;;;;;7409910;19;20014;-77
2023/07/19 08:13:46;;;;;;;11.18;2.70;;;;;;;;;;7408272;19;20047;-77
2023/07/19 08:16:13;;;;;;;6.68;2.85;;;;;;;;;;7399792;19;20010;-77
2023/07/19 08:18:38;;;;;;;5.30;2.70;;;;;;;;;;7401893;19;20013;-77
2023/07/19 08:21:05;;;;;;;7.15;3.10;;;;;;;;;;7396731;19;20014;-78
2023/07/19 08:23:32;;;;;;;5.80;2.70;;;;;;;;;;7390280;19;20023;-77
2023/07/19 08:25:58;;;;;;;6.65;3.00;;;;;;;;;;7378216;19;19999;-78
2023/07/19 08:28:26;;;;;;;7.95;2.92;;;;;;;;;;7392306;19;20006;-77
2023/07/19 08:30:52;;;;;;;6.40;2.63;;;;;;;;;;7370266;19;20003;-77
2023/07/19 08:33:20;;;;;;;10.68;2.95;;;;;;;;;;7368951;19;20395;-77
2023/07/19 08:35:45;;;;;;;7.65;2.60;;;;;;;;;;7371798;19;20042;-77
2023/07/19 08:38:11;;;;;;;10.25;3.05;;;;;;;;;;7367038;19;20016;-77
2023/07/19 08:40:38;;;;;;;7.97;2.63;;;;;;;;;;7390039;19;20015;-77
2023/07/19 08:43:07;;;;;;;5.03;2.80;;;;;;;;;;7369180;19;20007;-77
2023/07/19 08:45:37;;;;;;;7.10;2.83;;;;;;;;;;7391818;19;20002;-77
2023/07/19 08:48:03;;;;;;;5.35;2.50;;;;;;;;;;7388524;19;20488;-77
2023/07/19 08:50:29;;;;;;;6.22;2.80;;;;;;;;;;7356271;19;19998;-75
2023/07/19 08:52:54;;;;;;;11.02;2.50;;;;;;;;;;7363245;19;20032;-76
2023/07/19 08:55:21;;;;;;;4.13;2.45;;;;;;;;;;7386880;19;20035;-76
2023/07/19 08:57:46;;;;;;;7.97;2.78;;;;;;;;;;7365006;19;20014;-76
2023/07/19 09:00:16;;;;;;;7.57;2.60;;;;;;;;;;7365062;19;20527;-76
2023/07/19 09:02:42;;;;;;;7.55;2.67;;;;;;;;;;7366636;19;20017;-76
2023/07/19 09:05:09;;;;;;;4.57;2.42;;;;;;;;;;7364012;19;19999;-75
2023/07/19 09:07:34;;;;;;;6.07;3.08;;;;;;;;;;7387808;19;20422;-76
2023/07/19 09:10:00;;;;;;;6.38;2.50;;;;;;;;;;7366568;19;20732;-76
2023/07/19 09:12:35;;;;;;;4.45;2.50;;;;;;;;;;7352090;19;20006;-76
2023/07/19 09:15:00;;;;;;;5.32;2.10;;;;;;;;;;7364080;19;20476;-76
2023/07/19 09:17:28;;;;;;;6.10;2.40;;;;;;;;;;7365251;19;20010;-77
2023/07/19 09:19:54;;;;;;;5.30;2.80;;;;;;;;;;7366847;19;20394;-77
2023/07/19 09:22:19;;;;;;;4.68;2.50;;;;;;;;;;7388943;19;20003;-77
2023/07/19 09:25:01;;;;;;;4.63;2.25;;;;;;;;;;7366308;19;20030;-76
2023/07/19 09:27:27;;;;;;;5.45;2.20;;;;;;;;;;7364367;19;20031;-76
2023/07/19 09:29:53;;;;;;;6.43;2.63;;;;;;;;;;7364342;19;20010;-76
2023/07/19 09:32:19;;;;;;;6.72;2.42;;;;;;;;;;7362708;19;20047;-76
2023/07/19 09:34:44;;;;;;;6.15;2.38;;;;;;;;;;7386692;19;20013;-77
2023/07/19 09:37:10;;;;;;;7.15;2.58;;;;;;;;;;7364640;19;20010;-76
2023/07/19 09:39:36;;;;;;;4.70;2.67;;;;;;;;;;7363181;19;20089;-76
2023/07/19 09:42:03;;;;;;;7.03;2.30;;;;;;;;;;7364317;19;20025;-76
2023/07/19 09:44:29;;;;;;;4.57;2.28;;;;;;;;;;7366944;19;20049;-77
2023/07/19 09:46:54;;;;;;;5.25;2.65;;;;;;;;;;7365982;19;20468;-76
2023/07/19 09:49:20;;;;;;;4.95;2.35;;;;;;;;;;7384038;19;20027;-76
2023/07/19 09:51:47;;;;;;;5.30;2.40;;;;;;;;;;7362415;19;20017;-76
2023/07/19 09:54:13;;;;;;;4.20;1.98;;;;;;;;;;7364122;19;20015;-76
2023/07/19 09:56:40;;;;;;;6.35;2.20;;;;;;;;;;7365455;19;20030;-76
2023/07/19 09:59:18;;;;;;;5.10;2.45;;;;;;;;;;7367120;19;20011;-77
2023/07/19 10:01:44;;;;;;;4.72;2.17;;;;;;;;;;7386858;19;19999;-76
2023/07/19 10:04:33;;;;;;;6.20;2.53;;;;;;;;;;7366626;19;20007;-76
2023/07/19 10:07:03;;;;;;;4.38;2.05;;;;;;;;;;7367707;19;20007;-76
2023/07/19 10:09:28;;;;;;;;;;;;;;;;;;7376941;19;20485;-76
2023/07/19 10:11:58;;;;;;;6.13;2.27;;;;;;;;;;7383160;19;19930;-77
2023/07/19 10:14:27;;;;;;;8.75;1.92;;;;;;;;;;7380977;19;20014;-77
2023/07/19 10:17:00;;;;;;;4.38;2.22;;;;;;;;;;7378206;19;20010;-75
2023/07/19 10:19:25;;;;;;;3.40;2.10;;;;;;;;;;7388107;19;20007;-75
2023/07/19 10:22:05;;;;;;;6.05;2.28;;;;;;;;;;7363333;19;20085;-76
2023/07/19 10:24:32;;;;;;;4.97;2.10;;;;;;;;;;7364010;19;20002;-76
2023/07/19 10:27:02;;;;;;;6.43;2.45;;;;;;;;;;7366259;19;20269;-76
2023/07/19 10:29:36;;;;;;;;;;;;;;;;;;7370497;19;20006;-75
2023/07/19 10:32:03;;;;;;;6.75;2.40;;;;;;;;;;7369929;19;20110;-76
2023/07/19 10:34:29;;;;;;;6.45;2.40;;;;;;;;;;7390658;19;20006;-76
2023/07/19 10:36:59;;;;;;;3.92;2.00;;;;;;;;;;7373361;19;20010;-76
2023/07/19 10:39:24;;;;;;;7.72;2.40;;;;;;;;;;7373986;19;20002;-76
2023/07/19 10:41:50;;;;;;;4.90;2.08;;;;;;;;;;7373315;19;20552;-76
2023/07/19 10:44:15;;;;;;;5.93;2.20;;;;;;;;;;7371194;19;20021;-76
2023/07/19 10:46:42;;;;;;;3.93;1.97;;;;;;;;;;7393166;19;19999;-77
2023/07/19 10:49:07;;;;;;;4.40;2.08;;;;;;;;;;7373751;19;20298;-77
2023/07/19 10:51:32;;;;;;;3.53;2.10;;;;;;;;;;7373347;19;20772;-77
2023/07/19 10:53:58;;;;;;;4.97;1.93;;;;;;;;;;7374851;19;20459;-76
2023/07/19 10:56:24;;;;;;;4.07;2.10;;;;;;;;;;7376980;19;20231;-77
2023/07/19 10:58:49;;;;;;;5.13;1.85;;;;;;;;;;7406052;19;20338;-77
2023/07/19 11:01:16;;;;;;;7.10;2.33;;;;;;;;;;7389867;19;20006;-77
2023/07/19 11:03:45;;;;;;;5.53;2.00;;;;;;;;;;7385851;19;20299;-76
2023/07/19 11:06:11;;;;;;;3.47;2.08;;;;;;;;;;7387697;19;20014;-77
2023/07/19 11:08:36;;;;;;;6.97;2.10;;;;;;;;;;7386068;19;20017;-77
2023/07/19 11:11:02;;;;;;;10.00;2.00;;;;;;;;;;7385793;19;20002;-76
2023/07/19 11:13:27;;;;;;;4.97;2.25;;;;;;;;;;7410316;19;20016;-77
2023/07/19 11:15:57;;;;;;;5.25;2.15;;;;;;;;;;7381618;19;20121;-76
2023/07/19 11:18:24;;;;;;;5.63;2.08;;;;;;;;;;7372243;19;20044;-76
2023/07/19 11:20:49;;;;;;;8.00;2.20;;;;;;;;;;7370573;19;20014;-76
2023/07/19 11:23:15;;;;;;;4.40;2.10;;;;;;;;;;7371793;19;20353;-76
2023/07/19 11:25:41;;;;;;;5.88;2.00;;;;;;;;;;7392554;19;20046;-76
2023/07/19 11:28:07;;;;;;;3.80;2.00;;;;;;;;;;7370578;19;20002;-76
2023/07/19 11:30:40;;;;;;;7.90;2.10;;;;;;;;;;7369534;19;20383;-76
2023/07/19 11:33:09;;;;;;;5.75;1.95;;;;;;;;;;7370102;19;20139;-76
2023/07/19 11:35:34;;;;;;;6.90;2.47;;;;;;;;;;7370086;19;20007;-76
2023/07/19 11:38:00;;;;;;;7.40;2.20;;;;;;;;;;7367386;19;20137;-77
2023/07/19 11:40:25;;;;;;;5.68;1.90;;;;;;;;;;7393205;19;20027;-76
2023/07/19 11:42:58;;;;;;;4.88;2.03;;;;;;;;;;7376541;19;20048;-77
2023/07/19 11:45:26;;;;;;;4.25;2.30;;;;;;;;;;7375121;19;20378;-77
2023/07/19 11:47:55;;;;;;;5.28;1.92;;;;;;;;;;7375438;19;20009;-77
2023/07/19 11:50:23;;;;;;;9.93;2.70;;;;;;;;;;7371862;19;20007;-76
2023/07/19 11:52:54;;;;;;;5.53;2.22;;;;;;;;;;7398448;19;20006;-76
2023/07/19 11:55:20;;;;;;;5.78;2.08;;;;;;;;;;7372771;19;20002;-76
2023/07/19 11:57:48;;;;;;;6.25;2.10;;;;;;;;;;7363322;19;20002;-70
2023/07/19 12:00:17;;;;;;;5.57;2.05;;;;;;;;;;7364529;19;20010;-70
2023/07/19 12:02:46;;;;;;;7.05;2.10;;;;;;;;;;7370134;19;20413;-73
2023/07/19 12:05:16;;;;;;;3.53;2.10;;;;;;;;;;7369714;19;20012;-73
2023/07/19 12:07:41;;;;;;;;;;;;;;;;;;7392936;19;20002;-77
2023/07/19 12:10:07;;;;;;;7.27;2.40;;;;;;;;;;7374440;19;19933;-79
2023/07/19 12:12:33;;;;;;;7.40;2.38;;;;;;;;;;7378653;19;20272;-75
2023/07/19 12:15:05;;;;;;;6.05;2.38;;;;;;;;;;7370413;19;20010;-72
2023/07/19 12:17:34;;;;;;;3.83;1.90;;;;;;;;;;7368800;19;20018;-72
2023/07/19 12:19:59;;;;;;;9.07;2.42;;;;;;;;;;7373635;19;20017;-70
2023/07/19 12:22:28;;;;;;;3.85;1.80;;;;;;;;;;7389958;19;20405;-71
2023/07/19 12:24:55;;;;;;;5.45;1.65;;;;;;;;;;7367095;19;20018;-71
2023/07/19 12:27:20;;;;;;;8.93;2.10;;;;;;;;;;7368716;19;20086;-76
2023/07/19 12:29:45;;;;;;;5.32;2.28;;;;;;;;;;7371578;19;20049;-72
2023/07/19 12:32:11;;;;;;;5.88;2.05;;;;;;;;;;7364753;19;20011;-73
2023/07/19 12:34:36;;;;;;;5.43;2.20;;;;;;;;;;7387830;19;20002;-70
2023/07/19 12:37:01;;;;;;;7.30;2.50;;;;;;;;;;7365443;19;20041;-71
2023/07/19 12:39:27;;;;;;;3.72;1.90;;;;;;;;;;7365715;19;20271;-70
2023/07/19 12:41:52;;;;;;;4.40;1.85;;;;;;;;;;7365649;19;20020;-77
2023/07/19 12:44:20;;;;;;;6.30;2.30;;;;;;;;;;7373214;19;20010;-72
2023/07/19 12:46:46;;;;;;;5.15;2.10;;;;;;;;;;7390559;19;20010;-74
2023/07/19 12:49:11;;;;;;;8.00;2.53;;;;;;;;;;7366517;19;20020;-67
2023/07/19 12:51:37;;;;;;;5.95;2.13;;;;;;;;;;7362047;19;20021;-69
2023/07/19 12:54:02;;;;;;;5.97;2.25;;;;;;;;;;7369009;19;20059;-71
2023/07/19 12:56:27;;;;;;;6.68;2.10;;;;;;;;;;7366485;19;20010;-73
2023/07/19 12:58:54;;;;;;;5.55;2.22;;;;;;;;;;7373345;19;20003;-72
2023/07/19 13:01:19;;;;;;;6.13;1.90;;;;;;;;;;7389221;19;20384;-73
2023/07/19 13:03:44;;;;;;;7.93;2.25;;;;;;;;;;7365704;19;20045;-58
2023/07/19 13:06:10;;;;;;;6.38;2.00;;;;;;;;;;7368198;19;20003;-56
2023/07/19 13:08:35;;;;;;;5.57;2.50;;;;;;;;;;7367380;19;20038;-58
2023/07/19 13:11:00;;;;;;;4.70;2.00;;;;;;;;;;7367148;19;20122;-73
2023/07/19 13:13:26;;;;;;;5.22;2.33;;;;;;;;;;7387014;19;20077;-74
2023/07/19 13:15:51;;;;;;;11.30;2.30;;;;;;;;;;7366222;19;20474;-71
2023/07/19 13:18:16;;;;;;;5.57;1.95;;;;;;;;;;7365892;19;20022;-59
2023/07/19 13:20:43;;;;;;;7.70;2.75;;;;;;;;;;7367153;19;20093;-62
2023/07/19 13:23:08;;;;;;;8.77;2.25;;;;;;;;;;7366032;19;20369;-70
2023/07/19 13:25:34;;;;;;;7.72;2.35;;;;;;;;;;7386490;19;20014;-68
2023/07/19 13:27:59;;;;;;;4.95;2.08;;;;;;;;;;7362406;19;20395;-69
2023/07/19 13:30:25;;;;;;;7.13;2.05;;;;;;;;;;7365765;19;20515;-71
2023/07/19 13:32:50;;;;;;;6.57;2.10;;;;;;;;;;7365091;19;20018;-70
2023/07/19 13:35:16;;;;;;;6.47;2.05;;;;;;;;;;7365944;19;20015;-70
2023/07/19 13:37:41;;;;;;;5.45;2.10;;;;;;;;;;7386812;19;20025;-70
2023/07/19 13:40:07;;;;;;;3.55;1.83;;;;;;;;;;7364692;19;20090;-68
2023/07/19 13:42:35;;;;;;;4.20;1.80;;;;;;;;;;7365946;19;20006;-60
2023/07/19 13:45:01;;;;;;;6.10;1.60;;;;;;;;;;7366919;19;20010;-63
2023/07/19 13:47:28;;;;;;;3.20;1.80;;;;;;;;;;7365356;19;20545;-63
2023/07/19 13:49:54;;;;;;;5.30;2.03;;;;;;;;;;7367381;19;19998;-65
2023/07/19 13:52:19;;;;;;;6.45;2.00;;;;;;;;;;7387606;19;20112;-65
2023/07/19 13:54:44;;;;;;;4.80;2.08;;;;;;;;;;7365626;19;20006;-65
2023/07/19 13:57:10;;;;;;;4.13;1.80;;;;;;;;;;7366641;19;20006;-70
2023/07/19 13:59:35;;;;;;;5.00;2.10;;;;;;;;;;7368390;19;20067;-72
2023/07/19 14:02:02;;;;;;;5.72;2.00;;;;;;;;;;7365607;19;21084;-72
2023/07/19 14:04:27;;;;;;;4.32;2.10;;;;;;;;;;7387615;19;20007;-62
2023/07/19 14:06:53;;;;;;;16.42;2.78;;;;;;;;;;7365353;19;20053;-66
2023/07/19 14:09:18;;;;;;;12.68;2.58;;;;;;;;;;7366188;19;20023;-64
2023/07/19 14:11:44;;;;;;;11.52;2.55;;;;;;;;;;7364028;19;20070;-67
2023/07/19 14:14:09;;;;;;;9.48;3.38;;;;;;;;;;7363799;19;20023;-67
2023/07/19 14:16:34;;;;;;;12.17;2.80;;;;;;;;;;7389410;19;20006;-75
2023/07/19 14:19:00;;;;;;;10.75;3.00;;;;;;;;;;7370333;19;20802;-80
2023/07/19 14:21:25;;;;;;;13.65;2.92;;;;;;;;;;7371714;19;20085;-75
2023/07/19 14:23:51;;;;;;;9.85;2.70;;;;;;;;;;7365716;19;20014;-73
2023/07/19 14:26:16;;;;;;;7.43;2.67;;;;;;;;;;7367051;19;19998;-74
2023/07/19 14:28:41;;;;;;;5.78;2.70;;;;;;;;;;7382207;19;20622;-74
2023/07/19 14:31:07;;;;;;;7.87;2.50;;;;;;;;;;7363612;19;20373;-71
2023/07/19 14:33:32;;;;;;;6.65;2.83;;;;;;;;;;7364828;19;20260;-71
2023/07/19 14:35:58;;;;;;;9.10;2.75;;;;;;;;;;7363856;19;20459;-71